Time;durP1;ratioP1;P1;durP2;ratioP2;P2;SDS_P1;SDS_P2;PMS_P1;PMS_P2;Temp;Humidity;BMP_temperature;BMP_pressure;BME280_temperature;BME280_humidity;BME280_pressure;Samples;Min_cycle;Max_cycle;Signal;HPM_P1;HPM_P2
2021/11/03 00:00:16;;;;;;;6.45;2.60;;;10.20;80.40;;;;;;5029475;28;20044;-65
2021/11/03 00:02:42;;;;;;;6.20;2.58;;;10.20;80.30;;;;;;5029516;28;20765;-65
2021/11/03 00:05:11;;;;;;;6.70;2.40;;;10.20;80.40;;;;;;5024036;28;20024;-65
2021/11/03 00:07:37;;;;;;;6.25;2.70;;;10.20;80.30;;;;;;5031148;28;20041;-65
2021/11/03 00:10:06;;;;;;;7.55;2.55;;;10.20;80.30;;;;;;5029601;28;20430;-65
2021/11/03 00:12:33;;;;;;;6.13;2.45;;;10.20;80.30;;;;;;5029592;28;20033;-65
2021/11/03 00:14:59;;;;;;;4.80;2.70;;;10.10;80.30;;;;;;5029335;28;20029;-65
2021/11/03 00:17:25;;;;;;;6.05;2.55;;;10.20;80.40;;;;;;5029241;28;20033;-65
2021/11/03 00:19:51;;;;;;;5.75;2.60;;;9.90;89.20;;;;;;5031256;28;20025;-65
2021/11/03 00:22:17;;;;;;;5.28;2.40;;;10.00;80.40;;;;;;5019844;28;20408;-65
2021/11/03 00:24:44;;;;;;;5.38;2.33;;;10.00;80.50;;;;;;5023536;28;20741;-65
2021/11/03 00:27:11;;;;;;;6.38;2.60;;;9.90;80.50;;;;;;5028733;28;20064;-65
2021/11/03 00:29:37;;;;;;;6.00;2.28;;;9.90;80.60;;;;;;5017010;28;20398;-65
2021/11/03 00:32:05;;;;;;;5.07;2.50;;;10.70;90.00;;;;;;5029756;28;20021;-65
2021/11/03 00:34:31;;;;;;;6.75;2.33;;;11.10;90.40;;;;;;5024753;28;20029;-65
2021/11/03 00:36:57;;;;;;;4.10;2.40;;;8.90;90.20;;;;;;5026507;28;20120;-65
2021/11/03 00:39:23;;;;;;;5.60;2.33;;;9.70;80.90;;;;;;5026849;28;20389;-65
2021/11/03 00:41:49;;;;;;;5.00;2.40;;;9.70;81.10;;;;;;5029563;28;20045;-65
2021/11/03 00:44:16;;;;;;;6.30;2.65;;;9.60;81.20;;;;;;5029455;28;20464;-65
2021/11/03 00:46:42;;;;;;;5.43;2.20;;;9.60;81.20;;;;;;5016165;28;20038;-65
2021/11/03 00:49:07;;;;;;;4.20;1.95;;;9.60;81.20;;;;;;5026842;28;20397;-65
2021/11/03 00:51:34;;;;;;;4.82;2.30;;;7.90;90.40;;;;;;5028658;28;20030;-65
2021/11/03 00:54:00;;;;;;;5.68;2.40;;;9.50;90.40;;;;;;5029278;28;20498;-65
2021/11/03 00:56:26;;;;;;;4.38;2.20;;;9.60;81.40;;;;;;5026286;28;20033;-65
2021/11/03 00:58:51;;;;;;;4.85;2.40;;;9.60;81.60;;;;;;5016371;28;20030;-65
2021/11/03 01:01:18;;;;;;;9.55;2.58;;;9.60;81.70;;;;;;5018881;28;20054;-65
2021/11/03 01:03:43;;;;;;;5.95;2.30;;;12.20;91.50;;;;;;5023825;28;20515;-65
2021/11/03 01:06:09;;;;;;;5.40;2.78;;;9.50;81.70;;;;;;5027961;28;20029;-65
2021/11/03 01:08:35;;;;;;;5.97;2.45;;;11.90;91.50;;;;;;5026310;28;20607;-65
2021/11/03 01:11:03;;;;;;;7.88;2.70;;;9.50;91.70;;;;;;5029853;28;20112;-65
2021/11/03 01:13:29;;;;;;;8.60;3.20;;;9.70;91.30;;;;;;5020394;28;20452;-65
2021/11/03 01:15:57;;;;;;;7.47;2.70;;;9.50;91.60;;;;;;5017234;28;20059;-65
2021/11/03 01:18:28;;;;;;;6.63;3.05;;;9.90;91.00;;;;;;5027587;28;20025;-65
2021/11/03 01:20:55;;;;;;;6.25;2.85;;;9.50;81.90;;;;;;5028432;28;20030;-65
2021/11/03 01:23:22;;;;;;;8.07;3.78;;;6.90;90.80;;;;;;5028903;28;20041;-65
2021/11/03 01:25:48;;;;;;;6.10;3.38;;;;;;;;;;5028467;28;20443;-65
2021/11/03 01:28:15;;;;;;;6.57;3.08;;;9.40;81.10;;;;;;5028591;28;20044;-65
2021/11/03 01:30:41;;;;;;;7.97;3.53;;;9.80;91.00;;;;;;5024455;28;20116;-65
2021/11/03 01:33:07;;;;;;;5.72;2.92;;;9.70;91.20;;;;;;5029320;28;20096;-65
2021/11/03 01:35:33;;;;;;;7.85;3.05;;;9.90;91.80;;;;;;5028295;28;20029;-65
2021/11/03 01:38:00;;;;;;;8.10;3.42;;;9.70;91.90;;;;;;5028385;28;20611;-65
2021/11/03 01:40:29;;;;;;;5.82;3.20;;;10.20;92.10;;;;;;5023168;28;20109;-65
2021/11/03 01:42:55;;;;;;;7.13;3.90;;;8.50;92.30;;;;;;5018171;28;20038;-65
2021/11/03 01:45:25;;;;;;;9.02;4.03;;;8.80;90.50;;;;;;5017462;28;20032;-65
2021/11/03 01:47:55;;;;;;;10.90;4.15;;;9.20;82.30;;;;;;5016075;28;20044;-65
2021/11/03 01:50:27;;;;;;;7.53;4.10;;;9.90;90.90;;;;;;5020347;28;20041;-65
2021/11/03 01:53:31;;;;;;;8.10;3.33;;;9.70;86.80;;;;;;5015467;28;20042;-65
2021/11/03 01:56:04;;;;;;;6.03;3.63;;;9.10;91.70;;;;;;5004675;28;20509;-65
2021/11/03 01:58:40;;;;;;;7.00;3.55;;;9.20;91.60;;;;;;4995246;28;20038;-65
2021/11/03 02:01:06;;;;;;;9.00;3.67;;;10.40;91.80;;;;;;4999348;28;20050;-65
2021/11/03 02:03:33;;;;;;;7.30;3.90;;;8.50;91.60;;;;;;4999001;28;20093;-65
2021/11/03 02:06:14;;;;;;;10.13;3.95;;;9.20;92.00;;;;;;4992328;28;20030;-65
2021/11/03 02:08:43;;;;;;;7.40;3.90;;;9.20;82.60;;;;;;5006947;28;20594;-65
2021/11/03 02:11:10;;;;;;;7.50;3.70;;;9.00;91.70;;;;;;5009463;28;20030;-65
2021/11/03 02:13:38;;;;;;;8.10;4.05;;;9.20;82.70;;;;;;5011038;28;20041;-65
2021/11/03 02:16:04;;;;;;;7.40;4.07;;;9.20;82.70;;;;;;5009542;28;20030;-65
2021/11/03 02:18:32;;;;;;;6.63;4.03;;;9.20;82.70;;;;;;5003385;28;20029;-65
2021/11/03 02:20:59;;;;;;;8.50;3.72;;;8.20;92.40;;;;;;5000897;28;20038;-65
2021/11/03 02:23:43;;;;;;;7.47;3.90;;;7.00;81.40;;;;;;5008035;28;20049;-65
2021/11/03 02:26:26;;;;;;;7.55;3.75;;;9.10;82.60;;;;;;5005923;28;20038;-65
2021/11/03 02:28:52;;;;;;;6.57;3.70;;;9.10;81.80;;;;;;5032708;28;20033;-65
2021/11/03 02:31:39;;;;;;;8.98;4.05;;;10.40;92.00;;;;;;5026141;28;20027;-65
2021/11/03 02:34:09;;;;;;;7.82;3.90;;;10.10;92.30;;;;;;5028990;28;20025;-65
2021/11/03 02:36:59;;;;;;;7.03;3.60;;;9.10;82.60;;;;;;5031547;28;20522;-65
2021/11/03 02:39:48;;;;;;;8.82;3.78;;;9.20;91.10;;;;;;5029951;28;20072;-65
2021/11/03 02:42:15;;;;;;;8.32;3.53;;;9.10;82.50;;;;;;5029114;28;20504;-65
2021/11/03 02:44:42;;;;;;;5.95;3.67;;;6.70;91.00;;;;;;5021250;28;20032;-65
2021/11/03 02:47:08;;;;;;;7.03;3.80;;;8.80;91.30;;;;;;5028451;28;20052;-65
2021/11/03 02:49:39;;;;;;;7.07;3.55;;;8.40;91.00;;;;;;5032028;28;20184;-65
2021/11/03 02:52:30;;;;;;;7.15;3.88;;;9.00;83.20;;;;;;5022548;28;20034;-65
2021/11/03 02:54:56;;;;;;;9.27;3.78;;;9.00;82.10;;;;;;5027965;28;20034;-65
2021/11/03 02:57:22;;;;;;;5.57;3.67;;;9.00;90.90;;;;;;5030965;28;20039;-65
2021/11/03 02:59:48;;;;;;;6.95;3.78;;;8.90;82.20;;;;;;5030884;28;20022;-65
2021/11/03 03:02:14;;;;;;;6.32;3.90;;;8.90;82.20;;;;;;5030808;28;20042;-65
2021/11/03 03:04:43;;;;;;;5.50;3.38;;;6.70;91.20;;;;;;5032156;28;20073;-65
2021/11/03 03:07:11;;;;;;;7.53;4.00;;;8.80;83.10;;;;;;5030615;28;20029;-65
2021/11/03 03:09:37;;;;;;;7.30;3.60;;;8.80;82.20;;;;;;5030733;28;20032;-65
2021/11/03 03:12:05;;;;;;;6.03;3.90;;;8.80;82.20;;;;;;5031057;28;20017;-65
2021/11/03 03:14:36;;;;;;;11.75;3.97;;;8.80;82.30;;;;;;5019864;28;20451;-65
2021/11/03 03:17:02;;;;;;;8.80;3.90;;;8.80;82.30;;;;;;5032488;28;20028;-65
2021/11/03 03:19:28;;;;;;;6.72;3.95;;;8.70;82.20;;;;;;5027321;28;20112;-65
2021/11/03 03:21:54;;;;;;;6.97;4.35;;;8.70;82.30;;;;;;5030315;28;20484;-65
2021/11/03 03:24:20;;;;;;;6.15;4.15;;;8.70;82.40;;;;;;5028080;28;20026;-65
2021/11/03 03:26:46;;;;;;;10.75;4.43;;;8.70;82.60;;;;;;5030589;28;20385;-65
2021/11/03 03:29:12;;;;;;;8.07;4.53;;;8.60;82.60;;;;;;5029058;28;20091;-65
2021/11/03 03:31:38;;;;;;;8.27;4.60;;;8.60;83.00;;;;;;5031614;28;20029;-65
2021/11/03 03:34:11;;;;;;;6.90;4.13;;;8.60;83.10;;;;;;5022221;28;20026;-65
2021/11/03 03:36:38;;;;;;;6.05;3.28;;;8.50;83.10;;;;;;5030000;28;20056;-65
2021/11/03 03:39:08;;;;;;;18.98;4.40;;;8.50;83.20;;;;;;5029762;28;20029;-65
2021/11/03 03:41:34;;;;;;;7.00;4.20;;;8.50;83.20;;;;;;5018595;28;20045;-65
2021/11/03 03:44:00;;;;;;;8.30;4.15;;;8.40;83.20;;;;;;5032093;28;20030;-65
2021/11/03 03:46:26;;;;;;;6.65;4.10;;;8.40;83.30;;;;;;5020010;28;20040;-65
2021/11/03 03:48:52;;;;;;;7.63;3.78;;;8.40;83.40;;;;;;5029921;28;20021;-65
2021/11/03 03:51:19;;;;;;;9.23;3.72;;;8.30;83.40;;;;;;5030201;28;20047;-65
2021/11/03 03:53:45;;;;;;;9.63;4.30;;;8.30;83.50;;;;;;5030247;28;20021;-65
2021/11/03 03:56:12;;;;;;;7.68;3.90;;;8.30;83.50;;;;;;5030481;28;20110;-65
2021/11/03 03:58:39;;;;;;;7.65;4.10;;;7.00;83.00;;;;;;5026190;28;20041;-65
2021/11/03 04:01:05;;;;;;;6.88;4.10;;;10.50;90.40;;;;;;5022192;28;20072;-65
2021/11/03 04:03:31;;;;;;;7.82;4.10;;;8.20;83.90;;;;;;5026911;28;20500;-65
2021/11/03 04:05:59;;;;;;;15.90;4.03;;;8.20;83.90;;;;;;5029534;28;20030;-65
2021/11/03 04:08:25;;;;;;;10.30;3.25;;;8.20;84.10;;;;;;5016314;28;20102;-65
2021/11/03 04:10:51;;;;;;;5.20;3.00;;;8.10;83.90;;;;;;5030324;28;20421;-65
2021/11/03 04:13:20;;;;;;;9.18;4.40;;;8.10;83.80;;;;;;5029918;28;20037;-65
2021/11/03 04:15:46;;;;;;;8.00;3.83;;;8.10;83.90;;;;;;5025866;28;20459;-65
2021/11/03 04:18:12;;;;;;;5.70;3.40;;;8.00;83.90;;;;;;5029868;28;20045;-65
2021/11/03 04:20:38;;;;;;;4.85;3.28;;;8.00;84.00;;;;;;5029966;28;20030;-65
2021/11/03 04:23:04;;;;;;;6.18;3.30;;;8.00;83.90;;;;;;5029574;28;20084;-65
2021/11/03 04:25:30;;;;;;;4.53;2.95;;;7.90;83.90;;;;;;5026310;28;20025;-65
2021/11/03 04:27:56;;;;;;;5.15;3.00;;;7.90;83.90;;;;;;5029684;28;20519;-65
2021/11/03 04:30:24;;;;;;;8.55;3.20;;;7.90;83.90;;;;;;5029094;28;20033;-65
2021/11/03 04:32:49;;;;;;;24.90;3.33;;;8.20;92.20;;;;;;5029261;28;20033;-65
2021/11/03 04:35:15;;;;;;;19.23;3.25;;;8.30;91.80;;;;;;5029717;28;20370;-65
2021/11/03 04:37:42;;;;;;;18.75;3.20;;;8.10;92.00;;;;;;5025761;28;20030;-65
2021/11/03 04:40:13;;;;;;;10.07;2.83;;;7.70;83.70;;;;;;5020688;28;20117;-65
2021/11/03 04:42:39;;;;;;;18.77;3.42;;;7.70;83.70;;;;;;5027115;28;20036;-65
2021/11/03 04:45:07;;;;;;;29.67;3.00;;;7.70;83.70;;;;;;5028514;28;20025;-65
2021/11/03 04:47:33;;;;;;;12.27;2.97;;;7.70;83.60;;;;;;5013939;28;20052;-65
2021/11/03 04:49:59;;;;;;;24.15;2.88;;;7.60;83.40;;;;;;5031369;28;20026;-65
2021/11/03 04:52:25;;;;;;;24.60;2.97;;;7.60;83.40;;;;;;5028123;28;20044;-65
2021/11/03 04:54:53;;;;;;;18.25;3.90;;;7.60;83.30;;;;;;5023048;28;20483;-65
2021/11/03 04:57:20;;;;;;;41.38;3.22;;;7.50;83.30;;;;;;5027531;28;20033;-65
2021/11/03 04:59:47;;;;;;;24.20;4.50;;;7.40;91.80;;;;;;5029753;28;20099;-65
2021/11/03 05:02:13;;;;;;;9.77;5.03;;;9.10;92.10;;;;;;5024727;28;20058;-65
2021/11/03 05:04:39;;;;;;;25.65;3.72;;;7.40;83.10;;;;;;5030403;28;20394;-65
2021/11/03 05:07:06;;;;;;;18.30;2.75;;;7.40;83.10;;;;;;5023777;28;20489;-65
2021/11/03 05:09:31;;;;;;;15.68;2.55;;;7.40;83.10;;;;;;5027542;28;20504;-64
2021/11/03 05:11:57;;;;;;;12.57;2.60;;;7.90;91.30;;;;;;5029770;28;20037;-64
2021/11/03 05:14:23;;;;;;;33.17;2.28;;;7.30;82.90;;;;;;5028151;28;20108;-64
2021/11/03 05:16:49;;;;;;;19.23;2.38;;;7.30;82.80;;;;;;5030340;28;20034;-65
2021/11/03 05:19:24;;;;;;;26.10;2.83;;;7.40;91.20;;;;;;5028865;28;20503;-64
2021/11/03 05:21:53;;;;;;;35.70;3.30;;;7.30;82.80;;;;;;5029014;28;20068;-64
2021/11/03 05:24:20;;;;;;;28.90;3.70;;;7.30;82.80;;;;;;5028630;28;20556;-65
2021/11/03 05:26:46;;;;;;;15.73;2.92;;;7.20;82.80;;;;;;5029305;28;20029;-64
2021/11/03 05:29:13;;;;;;;22.50;2.75;;;7.20;82.80;;;;;;5028527;28;20026;-65
2021/11/03 05:31:39;;;;;;;44.38;3.90;;;7.00;91.40;;;;;;5030059;28;20037;-64
2021/11/03 05:34:05;;;;;;;29.17;3.28;;;7.20;82.80;;;;;;5020386;28;20022;-65
2021/11/03 05:36:31;;;;;;;18.05;2.50;;;7.20;82.80;;;;;;5025457;28;20091;-65
2021/11/03 05:39:00;;;;;;;17.90;2.70;;;7.10;82.70;;;;;;5029017;28;20052;-64
2021/11/03 05:41:27;;;;;;;29.30;2.80;;;7.10;82.40;;;;;;5029237;28;20034;-66
2021/11/03 05:43:53;;;;;;;26.83;3.15;;;7.10;82.40;;;;;;5031198;28;20036;-65
2021/11/03 05:46:43;;;;;;;18.42;2.28;;;7.00;82.30;;;;;;5032468;28;20026;-64
2021/11/03 05:49:11;;;;;;;16.07;2.17;;;7.00;82.40;;;;;;5020310;28;20574;-64
2021/11/03 05:51:38;;;;;;;8.90;1.80;;;7.00;82.40;;;;;;5026304;28;20268;-65
2021/11/03 05:54:05;;;;;;;12.55;2.20;;;6.90;82.40;;;;;;5032648;28;20134;-65
2021/11/03 05:56:32;;;;;;;39.85;3.00;;;6.90;82.40;;;;;;5030271;28;20044;-65
2021/11/03 05:58:59;;;;;;;32.13;2.53;;;6.90;82.30;;;;;;5029402;28;20030;-65
2021/11/03 06:01:25;;;;;;;11.15;2.47;;;6.80;82.40;;;;;;5032047;28;20060;-65
2021/11/03 06:03:53;;;;;;;20.45;2.72;;;6.80;82.40;;;;;;5032326;28;20017;-65
2021/11/03 06:06:19;;;;;;;7.65;2.00;;;6.80;82.30;;;;;;5031679;28;20037;-65
2021/11/03 06:08:45;;;;;;;6.32;1.70;;;6.80;82.20;;;;;;5032356;28;20054;-66
2021/11/03 06:11:14;;;;;;;3.65;1.90;;;6.80;82.20;;;;;;5031649;28;20400;-66
2021/11/03 06:13:41;;;;;;;3.58;1.60;;;6.70;82.10;;;;;;5032554;28;20277;-66
2021/11/03 06:16:07;;;;;;;4.85;1.80;;;6.70;82.10;;;;;;5031330;28;20083;-66
2021/11/03 06:18:33;;;;;;;3.92;1.70;;;6.70;82.00;;;;;;5028822;28;20033;-66
2021/11/03 06:20:59;;;;;;;4.53;1.80;;;6.60;81.90;;;;;;5032652;28;20545;-65
2021/11/03 06:23:25;;;;;;;12.90;1.80;;;6.60;81.90;;;;;;5032108;28;20087;-65
2021/11/03 06:25:51;;;;;;;3.80;1.80;;;6.60;82.00;;;;;;5042269;28;20017;-65
2021/11/03 06:28:17;;;;;;;6.88;1.48;;;6.60;82.10;;;;;;5032176;28;20021;-65
2021/11/03 06:30:44;;;;;;;14.02;2.10;;;6.50;82.00;;;;;;5031858;28;20105;-65
2021/11/03 06:33:10;;;;;;;18.63;2.55;;;5.90;90.50;;;;;;5030964;28;20571;-66
2021/11/03 06:35:37;;;;;;;13.50;3.20;;;6.50;82.00;;;;;;5031224;28;20033;-65
2021/11/03 06:38:05;;;;;;;9.18;1.85;;;6.50;82.00;;;;;;5032020;28;20030;-66
2021/11/03 06:40:31;;;;;;;13.30;2.05;;;6.40;81.80;;;;;;5021856;28;20030;-66
2021/11/03 06:42:57;;;;;;;14.70;2.33;;;6.40;81.80;;;;;;5030869;28;20068;-66
2021/11/03 06:45:24;;;;;;;15.70;1.77;;;6.40;81.60;;;;;;5028469;28;20065;-65
2021/11/03 06:47:51;;;;;;;8.32;2.03;;;8.00;91.00;;;;;;5018555;28;20024;-65
2021/11/03 06:50:24;;;;;;;15.63;2.55;;;6.30;81.40;;;;;;5031145;28;20048;-66
2021/11/03 06:52:51;;;;;;;30.70;2.78;;;6.30;81.50;;;;;;5033037;28;20732;-66
2021/11/03 06:55:18;;;;;;;22.50;2.28;;;6.30;81.60;;;;;;5030604;28;20033;-66
2021/11/03 06:57:44;;;;;;;15.13;2.60;;;6.30;81.70;;;;;;5029335;28;20045;-65
2021/11/03 07:00:14;;;;;;;8.88;2.70;;;6.30;81.70;;;;;;5030223;28;20512;-66
2021/11/03 07:02:40;;;;;;;6.65;2.40;;;6.30;81.70;;;;;;5016397;28;20057;-65
2021/11/03 07:05:06;;;;;;;8.13;2.20;;;6.30;81.60;;;;;;5031350;28;20014;-65
2021/11/03 07:07:32;;;;;;;7.35;2.20;;;4.50;90.20;;;;;;5028756;28;20108;-66
2021/11/03 07:09:58;;;;;;;5.28;2.20;;;4.50;90.20;;;;;;5027262;28;20769;-64
2021/11/03 07:12:24;;;;;;;7.25;1.90;;;6.30;82.30;;;;;;5027370;28;20029;-66
2021/11/03 07:14:49;;;;;;;5.93;2.40;;;6.30;81.30;;;;;;5018179;28;20026;-65
2021/11/03 07:17:15;;;;;;;7.57;2.70;;;6.30;81.30;;;;;;5031540;28;20053;-66
2021/11/03 07:19:42;;;;;;;5.22;2.35;;;6.30;81.20;;;;;;5029972;28;20108;-65
2021/11/03 07:22:09;;;;;;;4.82;2.35;;;6.60;81.10;;;;;;5030951;28;20038;-65
2021/11/03 07:24:35;;;;;;;3.75;2.38;;;7.10;80.00;;;;;;5030659;28;20373;-64
2021/11/03 07:27:02;;;;;;;9.23;2.50;;;7.40;79.10;;;;;;5030877;28;20054;-65
2021/11/03 07:29:28;;;;;;;4.65;2.10;;;8.00;78.00;;;;;;5021430;28;20339;-66
2021/11/03 07:31:54;;;;;;;3.90;1.80;;;8.80;75.70;;;;;;5028614;28;20036;-66
2021/11/03 07:34:20;;;;;;;4.78;2.15;;;9.40;73.60;;;;;;5029290;28;20029;-65
2021/11/03 07:36:46;;;;;;;8.40;2.10;;;10.10;71.60;;;;;;5028513;28;20026;-65
2021/11/03 07:39:12;;;;;;;8.32;2.15;;;10.80;69.70;;;;;;5029887;28;20041;-66
2021/11/03 07:41:39;;;;;;;6.38;1.65;;;11.50;67.90;;;;;;5029565;28;20386;-66
2021/11/03 07:44:10;;;;;;;4.00;1.80;;;12.20;66.30;;;;;;5027539;28;20024;-65
2021/11/03 07:46:35;;;;;;;;;;;12.80;64.80;;;;;;5028085;28;20029;-66
2021/11/03 07:49:02;;;;;;;3.35;1.75;;;13.40;63.10;;;;;;5022924;28;20399;-66
2021/11/03 07:51:28;;;;;;;4.05;1.70;;;13.90;62.30;;;;;;5022627;28;20512;-66
2021/11/03 07:53:58;;;;;;;5.40;2.00;;;14.70;61.20;;;;;;5030695;28;20052;-66
2021/11/03 07:56:25;;;;;;;4.68;2.20;;;15.50;59.60;;;;;;5014474;28;20029;-66
2021/11/03 07:58:53;;;;;;;4.10;2.33;;;16.20;57.90;;;;;;5031685;28;20132;-66
2021/11/03 08:01:22;;;;;;;4.88;2.47;;;16.80;56.70;;;;;;5028285;28;20115;-66
2021/11/03 08:03:49;;;;;;;6.93;2.80;;;17.50;55.40;;;;;;5030075;28;20121;-66
2021/11/03 08:06:16;;;;;;;5.10;3.45;;;18.30;54.00;;;;;;5026239;28;20037;-66
2021/11/03 08:08:50;;;;;;;4.65;2.42;;;19.10;52.60;;;;;;5029038;28;20017;-66
2021/11/03 08:11:17;;;;;;;4.85;2.20;;;19.80;50.70;;;;;;5029525;28;20049;-66
2021/11/03 08:13:43;;;;;;;5.18;1.85;;;20.50;49.20;;;;;;5017921;28;20621;-66
2021/11/03 08:16:10;;;;;;;4.65;2.10;;;21.10;47.60;;;;;;5025861;28;20404;-66
2021/11/03 08:18:40;;;;;;;4.22;2.00;;;21.60;46.30;;;;;;5024619;28;20018;-66
2021/11/03 08:21:07;;;;;;;6.65;2.15;;;22.10;45.00;;;;;;5017968;28;20037;-66
2021/11/03 08:26:55;;;;;;;4.03;2.13;;;23.00;43.20;;;;;;5027870;28;20078;-66
2021/11/03 08:29:23;;;;;;;4.72;2.40;;;23.40;42.60;;;;;;5013638;28;20026;-66
2021/11/03 08:31:51;;;;;;;4.22;2.40;;;23.70;42.00;;;;;;5029519;28;20026;-67
2021/11/03 08:34:18;;;;;;;4.65;2.50;;;24.10;41.40;;;;;;5029560;28;20021;-67
2021/11/03 08:36:44;;;;;;;5.22;2.90;;;24.60;40.50;;;;;;5028609;28;20025;-66
2021/11/03 08:39:11;;;;;;;4.70;3.60;;;25.00;39.50;;;;;;5028446;28;20029;-67
2021/11/03 08:41:38;;;;;;;6.32;4.80;;;25.50;38.90;;;;;;5028230;28;20065;-67
2021/11/03 08:44:04;;;;;;;7.28;6.57;;;26.00;38.20;;;;;;5028593;28;20408;-67
2021/11/03 08:46:30;;;;;;;9.73;8.82;;;26.40;37.20;;;;;;5028808;28;20437;-67
2021/11/03 08:48:58;;;;;;;10.77;9.88;;;26.60;36.80;;;;;;5029387;28;20036;-67
2021/11/03 08:51:26;;;;;;;15.07;14.07;;;26.70;36.40;;;;;;5026860;28;20041;-65
2021/11/03 08:53:53;;;;;;;1999.90;999.90;;;27.10;36.00;;;;;;5015467;28;20111;-66
2021/11/03 08:56:19;;;;;;;1999.90;999.90;;;27.70;35.10;;;;;;5029346;28;20079;-66
2021/11/03 08:58:44;;;;;;;7.88;7.18;;;28.30;34.10;;;;;;5016722;28;20034;-66
2021/11/03 09:01:11;;;;;;;20.00;18.80;;;28.90;32.60;;;;;;5017605;28;20501;-66
2021/11/03 09:03:39;;;;;;;5.53;4.25;;;29.60;31.90;;;;;;5022548;28;20030;-66
2021/11/03 09:06:05;;;;;;;5.60;5.10;;;29.80;31.00;;;;;;5028347;28;20524;-66
2021/11/03 09:08:31;;;;;;;4.82;4.32;;;30.30;31.50;;;;;;5029285;28;20025;-66
2021/11/03 09:11:00;;;;;;;5.07;3.70;;;31.10;30.00;;;;;;5030576;28;20470;-66
2021/11/03 09:13:29;;;;;;;6.03;4.00;;;31.80;28.60;;;;;;5028881;28;20041;-67
2021/11/03 09:15:56;;;;;;;4.50;3.15;;;32.20;27.50;;;;;;5029088;28;20040;-67
2021/11/03 09:18:22;;;;;;;3.90;2.40;;;32.20;27.50;;;;;;5031583;28;20060;-67
2021/11/03 09:20:53;;;;;;;5.15;1.55;;;31.60;27.10;;;;;;5032642;28;20028;-67
2021/11/03 09:23:20;;;;;;;2.88;1.20;;;30.10;28.30;;;;;;5032311;28;20029;-67
2021/11/03 09:25:48;;;;;;;4.07;2.50;;;28.40;30.00;;;;;;5034395;28;20427;-67
2021/11/03 09:28:14;;;;;;;8.00;7.30;;;27.30;31.80;;;;;;5032154;28;20029;-67
2021/11/03 09:30:40;;;;;;;7.22;6.50;;;27.70;31.90;;;;;;5030950;28;20373;-67
2021/11/03 09:33:08;;;;;;;5.35;1.05;;;28.60;30.50;;;;;;5032562;28;20053;-67
2021/11/03 09:35:43;;;;;;;5.65;4.38;;;26.80;31.60;;;;;;5031800;28;20045;-67
2021/11/03 09:38:11;;;;;;;1999.90;999.90;;;26.60;33.50;;;;;;5031606;28;20053;-67
2021/11/03 09:40:45;;;;;;;12.63;11.75;;;28.90;31.50;;;;;;5033219;28;20112;-67
2021/11/03 09:43:38;;;;;;;3.10;0.90;;;29.70;30.00;;;;;;5032575;28;20052;-67
2021/11/03 09:46:41;;;;;;;7.78;7.07;;;27.40;30.30;;;;;;5026834;28;20067;-66
2021/11/03 09:49:07;;;;;;;4.15;0.80;;;26.70;32.90;;;;;;5027754;28;20032;-66
2021/11/03 09:51:35;;;;;;;3.78;0.80;;;25.40;34.40;;;;;;5030131;28;20184;-66
2021/11/03 09:54:05;;;;;;;2.58;0.70;;;24.50;35.60;;;;;;5028968;28;20096;-66
2021/11/03 09:56:43;;;;;;;2.00;0.88;;;23.60;37.30;;;;;;5026325;28;20037;-66
2021/11/03 09:59:23;;;;;;;3.30;0.85;;;23.20;38.50;;;;;;5029835;28;20112;-66
2021/11/03 10:01:51;;;;;;;9.82;9.10;;;24.20;37.70;;;;;;5029380;28;20053;-66
2021/11/03 10:04:54;;;;;;;8.15;7.55;;;27.70;34.00;;;;;;5008761;28;20041;-66
2021/11/03 10:07:51;;;;;;;8.65;7.93;;;30.40;30.00;;;;;;5028410;28;20022;-66
2021/11/03 10:10:30;;;;;;;4.70;4.20;;;32.20;27.50;;;;;;5029425;28;20515;-66
2021/11/03 10:12:57;;;;;;;5.10;4.60;;;33.00;27.30;;;;;;5028876;28;20496;-66
2021/11/03 10:15:25;;;;;;;3.03;1.58;;;34.60;26.10;;;;;;5028297;28;20073;-66
2021/11/03 10:18:11;;;;;;;2.67;0.90;;;33.70;25.00;;;;;;5029867;28;20080;-66
2021/11/03 10:20:41;;;;;;;2.80;0.90;;;32.00;26.10;;;;;;5014074;28;20087;-66
2021/11/03 10:23:17;;;;;;;3.03;1.20;;;30.40;27.80;;;;;;5022427;28;20067;-66
2021/11/03 10:25:58;;;;;;;3.03;1.50;;;29.80;28.40;;;;;;5023709;28;20091;-67
2021/11/03 10:28:28;;;;;;;3.55;2.05;;;30.70;28.40;;;;;;5030370;28;20033;-66
2021/11/03 10:30:54;;;;;;;2.63;1.10;;;32.70;27.10;;;;;;5028749;28;20034;-66
2021/11/03 10:34:00;;;;;;;3.00;0.90;;;32.90;25.90;;;;;;5031693;28;20038;-66
2021/11/03 10:36:36;;;;;;;2.95;1.10;;;31.70;26.10;;;;;;5027902;28;20108;-66
2021/11/03 10:39:18;;;;;;;3.25;1.00;;;30.70;27.20;;;;;;5024960;28;20025;-66
2021/11/03 10:41:58;;;;;;;3.25;1.30;;;30.40;27.10;;;;;;5017802;28;20076;-66
2021/11/03 10:44:27;;;;;;;5.30;1.40;;;32.30;27.10;;;;;;5029612;28;20033;-67
2021/11/03 10:47:09;;;;;;;4.13;1.30;;;34.30;25.80;;;;;;5031905;28;20022;-67
2021/11/03 10:49:44;;;;;;;4.45;1.30;;;34.50;25.60;;;;;;5031639;28;20083;-67
2021/11/03 10:52:15;;;;;;;;;;;36.20;24.20;;;;;;5022305;28;20041;-67
2021/11/03 10:54:50;;;;;;;2.92;1.00;;;37.40;23.00;;;;;;5025192;28;19920;-67
2021/11/03 10:57:44;;;;;;;3.95;1.30;;;38.40;21.80;;;;;;5025334;28;20042;-67
2021/11/03 11:00:26;;;;;;;4.38;1.20;;;39.30;21.30;;;;;;5020147;28;20417;-67
2021/11/03 11:03:18;;;;;;;3.92;1.08;;;40.10;19.90;;;;;;5020823;28;20512;-67
2021/11/03 11:05:52;;;;;;;3.50;1.17;;;40.70;19.40;;;;;;5031365;28;20057;-67
2021/11/03 11:08:22;;;;;;;2.65;0.90;;;41.00;19.00;;;;;;5031103;28;20033;-67
2021/11/03 11:10:59;;;;;;;3.63;1.10;;;41.30;18.90;;;;;;5032658;28;20088;-67
2021/11/03 11:13:34;;;;;;;5.55;1.00;;;41.60;18.20;;;;;;5022616;28;20048;-67
2021/11/03 11:16:12;;;;;;;4.43;0.85;;;42.00;18.20;;;;;;5031415;28;20057;-67
2021/11/03 11:18:54;;;;;;;2.95;1.00;;;42.20;17.60;;;;;;5026225;28;20025;-67
2021/11/03 11:21:35;;;;;;;4.20;0.80;;;42.60;17.50;;;;;;5028366;28;20053;-67
2021/11/03 11:24:09;;;;;;;3.42;0.90;;;42.70;16.90;;;;;;5019269;28;20022;-67
2021/11/03 11:26:42;;;;;;;3.35;0.88;;;42.70;16.80;;;;;;5023209;28;20018;-67
2021/11/03 11:29:13;;;;;;;2.67;0.80;;;43.10;16.70;;;;;;5019038;28;20034;-67
2021/11/03 11:32:00;;;;;;;2.97;0.80;;;40.10;16.70;;;;;;5030194;28;20045;-67
2021/11/03 11:34:47;;;;;;;3.85;0.82;;;38.10;18.70;;;;;;5028918;28;20096;-67
2021/11/03 11:37:38;;;;;;;3.45;0.90;;;36.00;19.80;;;;;;5029947;28;20025;-67
2021/11/03 11:40:26;;;;;;;3.85;0.80;;;35.50;20.80;;;;;;5029684;28;20025;-67
2021/11/03 11:43:18;;;;;;;4.50;1.00;;;36.20;20.40;;;;;;5029983;28;20164;-67
2021/11/03 11:45:45;;;;;;;3.03;0.98;;;38.90;19.90;;;;;;5030511;28;20041;-67
2021/11/03 11:48:22;;;;;;;5.05;0.80;;;40.10;18.80;;;;;;5030338;28;20423;-67
2021/11/03 11:50:58;;;;;;;3.53;0.80;;;41.30;17.90;;;;;;5030695;28;20715;-67
2021/11/03 11:53:37;;;;;;;3.67;0.88;;;42.20;17.10;;;;;;5026484;28;20037;-67
2021/11/03 11:56:07;;;;;;;3.88;0.82;;;43.00;16.70;;;;;;5027080;28;20021;-67
2021/11/03 11:58:34;;;;;;;;;;;44.00;16.70;;;;;;5015348;28;20536;-67
2021/11/03 12:01:16;;;;;;;3.47;0.85;;;43.10;16.30;;;;;;5029991;28;19939;-67
2021/11/03 12:03:58;;;;;;;3.03;0.80;;;44.40;16.00;;;;;;5024532;28;20117;-67
2021/11/03 12:06:44;;;;;;;3.08;0.80;;;45.40;15.40;;;;;;5021726;28;20021;-68
2021/11/03 12:09:24;;;;;;;2.22;0.60;;;42.80;14.80;;;;;;5030438;28;20026;-68
2021/11/03 12:11:56;;;;;;;3.10;0.88;;;39.30;16.90;;;;;;5030529;28;20511;-67
2021/11/03 12:14:36;;;;;;;3.13;0.70;;;36.40;18.50;;;;;;5029185;28;20041;-67
2021/11/03 12:17:07;;;;;;;3.60;0.90;;;33.90;20.40;;;;;;5024949;28;20033;-66
2021/11/03 12:19:36;;;;;;;4.80;0.85;;;31.80;21.90;;;;;;5030474;28;20025;-66
2021/11/03 12:22:08;;;;;;;4.25;0.80;;;30.20;23.30;;;;;;5028919;28;20056;-66
2021/11/03 12:24:42;;;;;;;3.65;0.93;;;28.80;24.50;;;;;;5030137;28;20156;-66
2021/11/03 12:27:20;;;;;;;2.75;0.90;;;27.40;25.80;;;;;;5029133;28;20036;-66
2021/11/03 12:30:20;;;;;;;5.35;1.10;;;26.40;27.20;;;;;;5015921;28;20536;-66
2021/11/03 12:32:46;;;;;;;5.18;1.10;;;25.50;28.40;;;;;;5019877;28;20042;-66
2021/11/03 12:35:17;;;;;;;2.83;0.95;;;24.70;29.60;;;;;;5023282;28;20056;-67
2021/11/03 12:37:46;;;;;;;4.03;1.00;;;24.30;30.50;;;;;;5027619;28;20026;-67
2021/11/03 12:40:26;;;;;;;3.25;1.00;;;28.10;29.00;;;;;;5029620;28;20099;-67
2021/11/03 12:43:25;;;;;;;4.13;1.08;;;31.70;25.60;;;;;;5027873;28;20101;-68
2021/11/03 12:45:51;;;;;;;4.97;1.40;;;34.50;23.20;;;;;;5022902;28;20112;-68
2021/11/03 12:48:21;;;;;;;5.00;0.95;;;36.40;21.90;;;;;;5023006;28;20117;-67
2021/11/03 12:50:47;;;;;;;;;;;37.60;20.60;;;;;;5029768;28;20033;-68
2021/11/03 12:53:17;;;;;;;3.70;0.70;;;38.40;19.60;;;;;;5029395;28;19920;-67
2021/11/03 12:55:56;;;;;;;2.53;0.70;;;39.00;18.80;;;;;;5026788;28;20034;-68
2021/11/03 12:58:31;;;;;;;4.83;0.90;;;39.40;18.20;;;;;;5028718;28;20057;-67
2021/11/03 13:01:03;;;;;;;3.00;0.90;;;39.00;18.90;;;;;;5024449;28;20128;-66
2021/11/03 13:03:32;;;;;;;2.42;0.70;;;35.70;19.60;;;;;;5029054;28;20056;-66
2021/11/03 13:06:00;;;;;;;4.22;0.90;;;32.90;21.10;;;;;;5028911;28;20049;-67
2021/11/03 13:08:42;;;;;;;4.07;0.80;;;31.50;22.30;;;;;;5029058;28;20415;-67